Time;durP1;ratioP1;P1;durP2;ratioP2;P2;SDS_P1;SDS_P2;PMS_P1;PMS_P2;Temp;Humidity;BMP_temperature;BMP_pressure;BME280_temperature;BME280_humidity;BME280_pressure;Samples;Min_cycle;Max_cycle;Signal;HPM_P1;HPM_P2
2022/05/04 00:00:38;;;;;;;3.17;1.30;;;19.20;99.90;;;;;;5036664;28;20205;-80
2022/05/04 00:03:09;;;;;;;2.97;1.52;;;19.30;99.90;;;;;;5030446;28;20186;-83
2022/05/04 00:05:42;;;;;;;3.47;1.58;;;19.40;99.90;;;;;;5025971;28;20198;-80
2022/05/04 00:08:12;;;;;;;3.38;1.35;;;19.50;99.90;;;;;;5034170;28;20332;-82
2022/05/04 00:10:43;;;;;;;6.97;1.80;;;19.60;99.90;;;;;;5037546;28;20213;-81
2022/05/04 00:13:14;;;;;;;3.22;1.45;;;19.70;99.90;;;;;;5028530;28;20286;-80
2022/05/04 00:15:45;;;;;;;3.15;1.30;;;19.90;99.90;;;;;;5024189;28;20194;-80
2022/05/04 00:18:15;;;;;;;2.38;1.10;;;20.00;99.90;;;;;;5035931;28;20661;-81
2022/05/04 00:20:48;;;;;;;5.72;1.23;;;20.10;99.90;;;;;;5021582;28;20258;-81
2022/05/04 00:23:19;;;;;;;2.00;1.20;;;20.30;99.90;;;;;;5035203;28;20190;-82
2022/05/04 00:25:50;;;;;;;3.33;1.17;;;20.40;99.90;;;;;;5028996;28;20206;-81
2022/05/04 00:28:20;;;;;;;2.70;1.20;;;20.50;99.90;;;;;;5035998;28;20216;-82
2022/05/04 00:30:52;;;;;;;2.25;1.00;;;20.60;99.90;;;;;;5034908;28;20662;-83
2022/05/04 00:33:23;;;;;;;3.05;1.20;;;20.70;99.90;;;;;;5031041;28;20202;-84
2022/05/04 00:35:55;;;;;;;2.85;1.30;;;20.70;99.90;;;;;;5031123;28;20199;-83
2022/05/04 00:38:26;;;;;;;1.77;1.00;;;20.80;99.90;;;;;;5032932;28;20187;-82
2022/05/04 00:40:56;;;;;;;6.63;1.25;;;20.90;99.90;;;;;;5025711;28;20737;-84
2022/05/04 00:43:28;;;;;;;5.45;1.42;;;21.00;99.90;;;;;;5013765;28;20203;-82
2022/05/04 00:45:58;;;;;;;3.67;1.23;;;21.10;99.90;;;;;;5040300;28;20205;-84
2022/05/04 00:48:29;;;;;;;3.00;1.23;;;21.20;99.90;;;;;;5042890;28;20655;-84
2022/05/04 00:51:02;;;;;;;4.95;1.73;;;21.30;99.90;;;;;;5036463;28;20195;-83
2022/05/04 00:53:32;;;;;;;2.20;1.27;;;21.30;99.90;;;;;;5030598;28;20545;-82
2022/05/04 00:56:04;;;;;;;5.47;1.20;;;21.50;99.90;;;;;;5035364;28;20767;-83
2022/05/04 01:01:22;;;;;;;5.72;1.50;;;21.70;99.90;;;;;;5017254;28;20204;-82
2022/05/04 01:03:53;;;;;;;4.15;1.40;;;21.80;99.90;;;;;;5026067;28;20195;-80
2022/05/04 01:06:26;;;;;;;2.17;1.10;;;21.90;99.90;;;;;;5031864;28;20212;-85
2022/05/04 01:08:57;;;;;;;4.03;1.15;;;22.00;99.90;;;;;;5036264;28;20194;-84
2022/05/04 01:11:28;;;;;;;3.42;1.95;;;22.10;99.90;;;;;;5038342;28;20208;-84
2022/05/04 01:14:03;;;;;;;21.33;14.27;;;22.20;99.90;;;;;;5037244;28;20197;-82
2022/05/04 01:16:35;;;;;;;13.20;8.57;;;22.30;99.90;;;;;;5037519;28;20578;-83
2022/05/04 01:19:06;;;;;;;10.10;7.70;;;22.40;99.90;;;;;;5032594;28;20600;-82
2022/05/04 01:21:39;;;;;;;4.40;2.50;;;22.50;99.90;;;;;;5022868;28;20194;-83
2022/05/04 01:24:13;;;;;;;4.07;2.00;;;22.60;99.90;;;;;;5032414;28;20203;-84
2022/05/04 01:26:43;;;;;;;3.08;1.98;;;22.70;99.90;;;;;;5037711;28;20773;-83
2022/05/04 01:29:14;;;;;;;3.10;1.70;;;22.80;99.90;;;;;;5019150;28;20190;-84
2022/05/04 01:31:45;;;;;;;3.30;1.30;;;22.90;99.90;;;;;;5028085;28;20207;-86
2022/05/04 01:34:17;;;;;;;3.45;0.90;;;23.00;99.90;;;;;;5027430;28;20198;-83
2022/05/04 01:36:48;;;;;;;2.17;0.98;;;23.00;99.90;;;;;;5028640;28;20233;-83
2022/05/04 01:39:21;;;;;;;3.50;1.10;;;23.10;99.90;;;;;;5037091;28;20625;-85
2022/05/04 01:42:09;;;;;;;4.47;1.20;;;23.20;99.90;;;;;;5029947;28;20191;-84
2022/05/04 01:44:40;;;;;;;4.43;0.90;;;23.30;99.90;;;;;;5039255;28;20233;-87
2022/05/04 01:47:11;;;;;;;4.38;1.10;;;23.40;99.90;;;;;;5035024;28;20222;-85
2022/05/04 01:49:42;;;;;;;3.22;1.00;;;23.40;99.90;;;;;;5035917;28;20286;-87
2022/05/04 01:52:13;;;;;;;2.63;0.90;;;23.50;99.90;;;;;;5033289;28;20202;-85
2022/05/04 01:54:45;;;;;;;1.67;0.80;;;23.50;99.90;;;;;;5033565;28;20223;-81
2022/05/04 01:59:51;;;;;;;1.52;0.82;;;23.60;99.90;;;;;;5056872;28;20212;-78
2022/05/04 02:02:22;;;;;;;3.55;1.02;;;23.70;99.90;;;;;;5072033;28;20275;-80
2022/05/04 02:04:53;;;;;;;1.45;0.80;;;23.80;99.90;;;;;;5067108;28;20193;-78
2022/05/04 02:07:23;;;;;;;2.55;0.90;;;23.80;99.90;;;;;;5065545;28;20213;-80
2022/05/04 02:09:56;;;;;;;0.82;0.80;;;23.90;99.90;;;;;;5071936;28;20197;-79
2022/05/04 02:12:29;;;;;;;1.52;0.90;;;24.00;99.90;;;;;;5068320;28;20200;-77
2022/05/04 02:15:00;;;;;;;3.63;1.00;;;24.00;99.90;;;;;;5073833;28;20197;-79
2022/05/04 02:17:31;;;;;;;1.83;0.90;;;24.00;99.90;;;;;;5068017;28;20197;-81
2022/05/04 02:20:01;;;;;;;0.82;0.80;;;24.10;99.90;;;;;;5069478;28;20647;-79
2022/05/04 02:22:32;;;;;;;3.47;0.77;;;24.20;99.90;;;;;;5071705;28;20216;-78
2022/05/04 02:25:04;;;;;;;1.60;1.00;;;24.30;99.90;;;;;;5067468;28;20193;-79
2022/05/04 02:27:35;;;;;;;1.85;0.90;;;24.30;99.90;;;;;;5069656;28;20741;-79
2022/05/04 02:30:06;;;;;;;0.63;0.63;;;24.30;99.90;;;;;;5065310;28;20242;-81
2022/05/04 02:32:37;;;;;;;1.73;0.75;;;24.40;99.90;;;;;;5064516;28;20273;-82
2022/05/04 02:37:57;;;;;;;2.55;0.60;;;24.40;99.90;;;;;;5070350;28;20250;-79
2022/05/04 02:40:30;;;;;;;2.15;0.90;;;24.30;99.90;;;;;;5071777;28;20193;-78
2022/05/04 02:43:01;;;;;;;1.48;0.80;;;24.40;99.90;;;;;;5063246;28;20197;-78
2022/05/04 02:45:32;;;;;;;1.17;0.90;;;24.30;99.90;;;;;;5062402;28;20197;-79
2022/05/04 02:48:02;;;;;;;1.67;1.10;;;24.30;99.90;;;;;;5070721;28;20683;-79
2022/05/04 02:50:33;;;;;;;1.60;0.90;;;24.40;99.90;;;;;;5069417;28;20197;-80
2022/05/04 02:53:04;;;;;;;3.92;1.00;;;24.40;99.90;;;;;;5069947;28;20201;-79
2022/05/04 02:55:37;;;;;;;2.08;0.77;;;24.40;99.90;;;;;;5073241;28;20709;-79
2022/05/04 02:58:07;;;;;;;1.77;0.65;;;24.50;99.90;;;;;;5064056;28;20772;-78
2022/05/04 03:00:38;;;;;;;3.00;0.90;;;24.60;99.90;;;;;;5078693;28;20279;-79
2022/05/04 03:03:07;;;;;;;1.55;0.88;;;24.60;99.90;;;;;;5077960;28;20196;-79
2022/05/04 03:05:38;;;;;;;1.48;0.70;;;24.60;99.90;;;;;;5080533;28;20196;-80
2022/05/04 03:08:09;;;;;;;1.35;0.80;;;24.60;99.90;;;;;;5076764;28;20217;-79
2022/05/04 03:13:25;;;;;;;3.22;0.70;;;24.60;99.90;;;;;;5073632;28;20205;-78
2022/05/04 03:15:56;;;;;;;1.25;0.77;;;24.60;99.90;;;;;;5085670;28;20217;-79
2022/05/04 03:18:26;;;;;;;2.88;1.10;;;24.50;99.90;;;;;;5077287;28;20211;-77
2022/05/04 03:20:57;;;;;;;1.48;0.80;;;24.60;99.90;;;;;;5076861;28;20261;-80
2022/05/04 03:23:27;;;;;;;2.50;0.68;;;24.60;99.90;;;;;;5083594;28;20200;-75
2022/05/04 03:26:00;;;;;;;1.23;0.90;;;24.50;99.90;;;;;;5077369;28;20552;-76
2022/05/04 03:28:30;;;;;;;1.10;0.60;;;24.50;99.90;;;;;;5075790;28;20702;-75
2022/05/04 03:31:01;;;;;;;2.10;0.80;;;24.40;99.90;;;;;;5078580;28;20196;-76
2022/05/04 03:33:32;;;;;;;9.52;2.20;;;24.40;99.90;;;;;;5074127;28;20193;-76
2022/05/04 03:36:02;;;;;;;1.10;0.75;;;24.50;99.90;;;;;;5079721;28;20197;-77
2022/05/04 03:38:33;;;;;;;2.08;0.80;;;24.50;99.90;;;;;;5076187;28;20201;-75
2022/05/04 03:41:06;;;;;;;2.63;0.70;;;24.40;99.90;;;;;;5076518;28;20725;-75
2022/05/04 03:43:36;;;;;;;4.90;2.05;;;24.50;99.90;;;;;;5076830;28;20192;-77
2022/05/04 03:46:17;;;;;;;1.10;0.70;;;24.40;99.90;;;;;;5078740;28;20242;-75
2022/05/04 03:48:49;;;;;;;1.20;0.65;;;24.50;99.90;;;;;;5081558;28;20225;-76
2022/05/04 03:51:20;;;;;;;0.60;0.60;;;24.50;99.90;;;;;;5091250;28;20656;-75
2022/05/04 03:53:51;;;;;;;1.48;0.80;;;24.50;99.90;;;;;;5084348;28;20197;-76
2022/05/04 03:56:24;;;;;;;0.60;0.60;;;24.40;99.90;;;;;;5086173;28;20242;-77
2022/05/04 03:58:55;;;;;;;0.88;0.60;;;24.40;99.90;;;;;;5076638;28;20281;-75
2022/05/04 04:01:25;;;;;;;1.13;0.60;;;24.40;99.90;;;;;;5081863;28;20241;-76
2022/05/04 04:03:56;;;;;;;1.48;0.63;;;24.50;99.90;;;;;;5083961;28;20225;-76
2022/05/04 04:06:27;;;;;;;2.08;0.77;;;24.50;99.90;;;;;;5083858;28;20678;-76
2022/05/04 04:08:58;;;;;;;2.35;0.82;;;24.50;99.90;;;;;;5088614;28;20219;-75
2022/05/04 04:11:31;;;;;;;1.02;0.80;;;24.40;99.90;;;;;;5082030;28;20210;-75
2022/05/04 04:14:02;;;;;;;2.00;1.10;;;24.40;99.90;;;;;;5081724;28;20197;-76
2022/05/04 04:16:33;;;;;;;1.88;0.90;;;24.50;99.90;;;;;;5079060;28;20188;-75
2022/05/04 04:19:03;;;;;;;0.90;0.60;;;24.50;99.90;;;;;;5079310;28;20201;-77
2022/05/04 04:24:21;;;;;;;1.00;0.80;;;24.30;99.90;;;;;;5076376;28;20195;-75
2022/05/04 04:26:54;;;;;;;1.13;0.90;;;24.30;99.90;;;;;;5072271;28;20605;-76
2022/05/04 04:29:24;;;;;;;1.17;0.75;;;24.30;99.90;;;;;;5082506;28;20220;-76
2022/05/04 04:31:55;;;;;;;3.80;0.70;;;24.40;99.90;;;;;;5081548;28;20200;-75
2022/05/04 04:34:26;;;;;;;0.75;0.68;;;24.40;99.90;;;;;;5079539;28;20810;-76
2022/05/04 04:36:56;;;;;;;1.60;0.68;;;24.40;99.90;;;;;;5079108;28;20188;-77
2022/05/04 04:39:27;;;;;;;1.10;0.60;;;24.40;99.90;;;;;;5079929;28;20232;-76
2022/05/04 04:41:59;;;;;;;0.80;0.60;;;24.30;99.90;;;;;;5081030;28;20215;-77
2022/05/04 04:44:30;;;;;;;0.77;0.60;;;24.40;99.90;;;;;;5088187;28;20188;-77
2022/05/04 04:47:01;;;;;;;2.22;0.93;;;24.30;99.90;;;;;;5083240;28;20209;-76
2022/05/04 04:49:32;;;;;;;1.73;0.60;;;24.40;99.90;;;;;;5078621;28;20212;-76
2022/05/04 04:52:02;;;;;;;1.52;0.60;;;24.40;99.90;;;;;;5078090;28;20239;-76
2022/05/04 04:54:33;;;;;;;0.75;0.55;;;24.50;99.90;;;;;;5081828;28;20250;-76
2022/05/04 04:57:05;;;;;;;2.55;0.63;;;24.40;99.90;;;;;;5083068;28;20435;-77
2022/05/04 04:59:36;;;;;;;1.00;0.63;;;24.40;99.90;;;;;;5088542;28;20698;-76
2022/05/04 05:02:07;;;;;;;2.03;0.68;;;24.40;99.90;;;;;;5078764;28;20215;-77
2022/05/04 05:04:37;;;;;;;1.67;0.60;;;24.40;99.90;;;;;;5083830;28;20287;-76
2022/05/04 05:07:08;;;;;;;2.38;0.73;;;24.40;99.90;;;;;;5083868;28;20205;-76
2022/05/04 05:09:39;;;;;;;2.17;0.60;;;24.30;99.90;;;;;;5087482;28;20220;-76
2022/05/04 05:12:12;;;;;;;1.38;0.70;;;24.20;99.90;;;;;;5084939;28;20193;-75
2022/05/04 05:17:29;;;;;;;1.02;0.60;;;24.10;99.90;;;;;;5080015;28;20250;-78
2022/05/04 05:20:00;;;;;;;2.22;0.60;;;24.10;99.90;;;;;;5086512;28;20549;-77
2022/05/04 05:22:31;;;;;;;0.93;0.65;;;24.00;99.90;;;;;;5089897;28;20196;-77
2022/05/04 05:25:02;;;;;;;37.40;26.52;;;24.00;99.90;;;;;;5077521;28;20223;-77
2022/05/04 05:27:35;;;;;;;7.65;5.72;;;23.80;99.90;;;;;;5078039;28;20197;-76
2022/05/04 05:30:07;;;;;;;2.63;1.05;;;23.80;99.90;;;;;;5085041;28;20197;-76
2022/05/04 05:32:37;;;;;;;2.42;1.15;;;23.70;99.90;;;;;;5076629;28;20208;-76
2022/05/04 05:35:09;;;;;;;3.45;1.02;;;23.60;99.90;;;;;;5083828;28;20200;-78
2022/05/04 05:37:39;;;;;;;1.70;0.95;;;23.70;99.90;;;;;;5083428;28;20200;-79
2022/05/04 05:40:11;;;;;;;1.15;1.05;;;23.70;99.90;;;;;;5091121;28;20196;-79
2022/05/04 05:42:43;;;;;;;3.22;1.20;;;23.80;99.90;;;;;;5088609;28;20196;-77
2022/05/04 05:45:14;;;;;;;6.38;1.45;;;23.80;99.90;;;;;;5091603;28;20193;-78
2022/05/04 05:47:45;;;;;;;4.30;1.40;;;23.80;99.90;;;;;;5085097;28;20215;-79
2022/05/04 05:50:17;;;;;;;4.07;1.27;;;23.70;99.90;;;;;;5088587;28;20205;-80
2022/05/04 05:52:47;;;;;;;1.98;1.15;;;23.70;99.90;;;;;;5094583;28;20201;-77
2022/05/04 05:55:18;;;;;;;4.22;1.30;;;23.60;99.90;;;;;;5091717;28;20196;-79
2022/05/04 05:57:50;;;;;;;3.83;1.38;;;23.50;99.90;;;;;;5084867;28;20270;-79
2022/05/04 06:00:22;;;;;;;7.22;1.20;;;23.50;99.90;;;;;;5081631;28;20254;-78
2022/05/04 06:02:52;;;;;;;5.53;1.45;;;23.40;99.90;;;;;;5076386;28;20189;-79
2022/05/04 06:05:23;;;;;;;5.07;1.33;;;23.40;99.90;;;;;;5088579;28;20200;-78
2022/05/04 06:07:54;;;;;;;1.75;1.10;;;23.30;99.90;;;;;;5082491;28;20196;-78
2022/05/04 06:10:24;;;;;;;7.57;1.15;;;23.30;99.90;;;;;;5082987;28;20196;-78
2022/05/04 06:12:57;;;;;;;4.13;1.10;;;23.20;99.90;;;;;;5086190;28;20209;-78
2022/05/04 06:15:27;;;;;;;5.60;1.42;;;23.20;99.90;;;;;;5079427;28;20278;-79
2022/05/04 06:17:58;;;;;;;3.65;1.20;;;23.10;99.90;;;;;;5084138;28;20210;-79
2022/05/04 06:20:29;;;;;;;2.38;1.15;;;23.10;99.90;;;;;;5091714;28;20208;-80
2022/05/04 06:23:00;;;;;;;4.70;1.40;;;22.90;99.90;;;;;;5089083;28;20201;-79
2022/05/04 06:25:30;;;;;;;3.90;1.23;;;22.90;99.90;;;;;;5087644;28;20192;-80
2022/05/04 06:28:03;;;;;;;4.78;1.27;;;22.80;99.90;;;;;;5089083;28;20590;-79
2022/05/04 06:36:15;;;;;;;4.95;1.50;;;22.70;99.90;;;;;;5081095;28;20199;-80
2022/05/04 06:38:46;;;;;;;3.72;1.30;;;22.70;99.90;;;;;;5085819;28;20200;-80
2022/05/04 06:41:18;;;;;;;4.63;1.48;;;22.60;99.90;;;;;;5082141;28;20200;-75
2022/05/04 06:43:50;;;;;;;4.03;1.30;;;22.60;99.90;;;;;;5087041;28;20200;-80
2022/05/04 06:46:21;;;;;;;5.10;1.50;;;22.50;99.90;;;;;;5078769;28;20200;-78
2022/05/04 06:48:52;;;;;;;4.15;1.70;;;22.50;99.90;;;;;;5079845;28;20308;-79
2022/05/04 06:51:23;;;;;;;5.18;1.50;;;22.40;99.90;;;;;;5079629;28;20197;-79
2022/05/04 06:53:53;;;;;;;2.28;1.33;;;22.30;99.90;;;;;;5081333;28;20200;-78
2022/05/04 06:56:24;;;;;;;2.95;1.30;;;22.20;99.90;;;;;;5074162;28;20197;-79
2022/05/04 06:58:56;;;;;;;4.60;1.55;;;22.10;99.90;;;;;;5077934;28;20232;-80
2022/05/04 07:01:27;;;;;;;2.78;1.40;;;22.10;99.90;;;;;;5083908;28;20196;-78
2022/05/04 07:03:58;;;;;;;6.55;1.73;;;22.00;99.90;;;;;;5081095;28;20283;-75
2022/05/04 07:06:29;;;;;;;3.88;2.03;;;21.90;99.90;;;;;;5078825;28;20192;-78
2022/05/04 07:08:59;;;;;;;8.35;2.00;;;21.90;99.90;;;;;;5078878;28;20212;-79
2022/05/04 07:11:30;;;;;;;3.08;1.80;;;21.80;99.90;;;;;;5084112;28;20196;-78
2022/05/04 07:14:03;;;;;;;2.55;2.10;;;21.80;99.90;;;;;;5077560;28;20279;-77
2022/05/04 07:16:33;;;;;;;3.45;2.10;;;21.70;99.90;;;;;;5079939;28;20666;-77
2022/05/04 07:19:04;;;;;;;2.70;1.90;;;21.70;99.90;;;;;;5085186;28;20193;-78
2022/05/04 07:21:34;;;;;;;5.03;1.90;;;21.60;99.90;;;;;;5079745;28;20205;-78
2022/05/04 07:24:05;;;;;;;3.35;1.70;;;21.50;99.90;;;;;;5085957;28;20243;-78
2022/05/04 07:26:36;;;;;;;3.05;1.50;;;21.50;99.90;;;;;;5074027;28;20193;-78
2022/05/04 07:29:09;;;;;;;2.33;1.13;;;21.40;99.90;;;;;;5076870;28;20216;-78
2022/05/04 07:31:39;;;;;;;3.13;1.67;;;21.40;99.90;;;;;;5080922;28;20568;-78
2022/05/04 07:34:10;;;;;;;3.78;1.67;;;21.30;99.90;;;;;;5082809;28;20246;-78
2022/05/04 07:36:41;;;;;;;6.18;2.47;;;21.30;99.90;;;;;;5082016;28;20189;-78
2022/05/04 07:42:21;;;;;;;4.70;2.05;;;21.30;99.90;;;;;;5078733;28;20351;-77
2022/05/04 07:44:52;;;;;;;3.75;1.70;;;21.10;99.90;;;;;;5076975;28;20199;-76
2022/05/04 07:47:23;;;;;;;2.80;1.40;;;21.10;99.90;;;;;;5078224;28;20279;-78
2022/05/04 07:49:54;;;;;;;2.45;1.17;;;21.00;99.90;;;;;;5081843;28;20221;-76
2022/05/04 07:52:25;;;;;;;3.38;1.48;;;21.00;99.90;;;;;;5084445;28;20197;-79
2022/05/04 07:54:56;;;;;;;3.47;1.30;;;21.00;99.90;;;;;;5081518;28;20204;-78
2022/05/04 07:57:27;;;;;;;5.15;1.42;;;21.00;99.90;;;;;;5084295;28;20274;-77
2022/05/04 08:05:37;;;;;;;4.97;1.38;;;21.00;99.90;;;;;;5082414;28;20207;-79
2022/05/04 08:08:08;;;;;;;2.97;1.30;;;21.00;99.90;;;;;;5077549;28;20258;-78
2022/05/04 08:10:40;;;;;;;3.60;1.35;;;21.00;99.90;;;;;;5078789;28;20722;-78
2022/05/04 08:13:11;;;;;;;3.58;1.52;;;21.10;99.90;;;;;;5077031;28;20251;-77
2022/05/04 08:15:43;;;;;;;4.82;1.50;;;21.00;99.90;;;;;;5078420;28;20208;-78
2022/05/04 08:18:14;;;;;;;4.72;1.60;;;21.00;99.90;;;;;;5082009;28;21418;-78
2022/05/04 08:20:45;;;;;;;4.30;1.83;;;21.00;99.90;;;;;;5083944;28;20196;-78
2022/05/04 08:23:16;;;;;;;11.95;7.07;;;21.00;99.90;;;;;;5075764;28;20655;-77
2022/05/04 08:25:47;;;;;;;10.15;3.83;;;20.90;99.90;;;;;;5086408;28;20200;-77
2022/05/04 08:28:18;;;;;;;3.92;2.20;;;20.90;99.90;;;;;;5082516;28;20278;-77
2022/05/04 08:30:50;;;;;;;6.68;3.88;;;20.80;99.90;;;;;;5083710;28;20248;-78
2022/05/04 08:33:21;;;;;;;4.25;2.00;;;20.80;99.90;;;;;;5084099;28;20200;-77
2022/05/04 08:35:52;;;;;;;8.50;3.58;;;20.70;99.90;;;;;;5084154;28;20192;-76
2022/05/04 08:38:23;;;;;;;8.25;4.00;;;20.70;99.90;;;;;;5078993;28;20205;-77
2022/05/04 08:40:56;;;;;;;6.93;3.40;;;20.60;99.90;;;;;;5080999;28;20563;-78
2022/05/04 08:43:29;;;;;;;6.82;4.15;;;20.60;99.90;;;;;;5086982;28;20264;-78
2022/05/04 08:46:04;;;;;;;12.40;7.43;;;20.50;99.90;;;;;;5079414;28;20193;-77
2022/05/04 08:48:35;;;;;;;5.80;3.30;;;20.50;99.90;;;;;;5084367;28;20249;-77
2022/05/04 08:51:06;;;;;;;7.53;3.72;;;20.50;99.90;;;;;;5087500;28;20199;-77
2022/05/04 08:53:37;;;;;;;7.28;2.58;;;20.40;99.90;;;;;;5087368;28;20192;-77
2022/05/04 08:56:09;;;;;;;5.82;3.47;;;20.40;99.90;;;;;;5080964;28;20204;-77
2022/05/04 08:58:40;;;;;;;5.68;2.60;;;20.40;99.90;;;;;;5080766;28;20322;-77
2022/05/04 09:01:12;;;;;;;8.30;3.20;;;20.30;99.90;;;;;;5082329;28;20196;-77
2022/05/04 09:03:43;;;;;;;7.20;3.35;;;20.30;99.90;;;;;;5086172;28;20321;-77
2022/05/04 09:06:25;;;;;;;5.25;2.20;;;20.30;99.90;;;;;;5081540;28;20199;-77
2022/05/04 09:09:03;;;;;;;3.70;2.00;;;20.30;99.90;;;;;;5083691;28;20245;-77
2022/05/04 09:11:38;;;;;;;5.95;2.50;;;20.30;99.90;;;;;;5087060;28;20200;-77
2022/05/04 09:14:11;;;;;;;6.07;2.35;;;20.20;99.90;;;;;;5079988;28;20196;-77
2022/05/04 09:16:44;;;;;;;5.25;2.38;;;20.20;99.90;;;;;;5085223;28;20203;-77
2022/05/04 09:19:16;;;;;;;6.80;2.33;;;20.20;99.90;;;;;;5080878;28;20226;-77
2022/05/04 09:21:47;;;;;;;3.30;2.00;;;20.20;99.90;;;;;;5077484;28;20196;-77
2022/05/04 09:24:27;;;;;;;6.22;2.40;;;20.20;99.90;;;;;;5079037;28;20610;-77
2022/05/04 09:27:00;;;;;;;3.92;2.28;;;20.20;99.90;;;;;;5086476;28;20663;-76
2022/05/04 09:29:37;;;;;;;4.25;2.13;;;20.20;99.90;;;;;;5083238;28;20209;-76
2022/05/04 09:32:18;;;;;;;4.80;2.50;;;20.20;99.90;;;;;;5077114;28;20656;-75
2022/05/04 09:34:49;;;;;;;4.03;2.40;;;20.20;99.90;;;;;;5078663;28;20192;-77
2022/05/04 09:45:55;;;;;;;3.92;2.40;;;20.20;99.90;;;;;;5079207;28;20203;-75
2022/05/04 09:48:34;;;;;;;3.75;2.13;;;20.10;99.90;;;;;;5081258;28;20197;-77
2022/05/04 09:51:08;;;;;;;5.13;2.08;;;20.10;99.90;;;;;;5077761;28;20207;-77
2022/05/04 09:53:40;;;;;;;3.97;2.47;;;20.10;99.90;;;;;;5079927;28;20242;-77
2022/05/04 09:56:11;;;;;;;5.88;2.53;;;20.10;99.90;;;;;;5080889;28;20528;-77
2022/05/04 09:58:42;;;;;;;4.85;2.20;;;20.10;99.90;;;;;;5074009;28;20285;-77
2022/05/04 10:01:13;;;;;;;5.43;2.30;;;20.00;99.90;;;;;;5080946;28;20675;-77
2022/05/04 10:03:50;;;;;;;3.95;2.20;;;20.00;99.90;;;;;;5088764;28;20197;-77
2022/05/04 10:06:23;;;;;;;6.10;2.50;;;20.00;99.90;;;;;;5081391;28;20337;-77
2022/05/04 10:08:53;;;;;;;4.25;2.20;;;20.00;99.90;;;;;;5081082;28;20285;-76
2022/05/04 10:11:25;;;;;;;5.40;2.40;;;20.00;99.90;;;;;;5080520;28;20192;-76
2022/05/04 10:13:57;;;;;;;3.55;2.30;;;20.00;99.90;;;;;;5081863;28;20200;-76
2022/05/04 10:16:29;;;;;;;5.07;2.50;;;19.90;99.90;;;;;;5088796;28;20257;-77
2022/05/04 10:19:03;;;;;;;5.10;2.53;;;19.90;99.90;;;;;;5078591;28;20283;-77
2022/05/04 10:21:34;;;;;;;5.18;2.20;;;19.90;99.90;;;;;;5080204;28;20197;-77
2022/05/04 10:24:08;;;;;;;6.38;2.40;;;19.90;99.90;;;;;;5082109;28;20673;-77
2022/05/04 10:26:40;;;;;;;3.50;1.98;;;19.80;99.90;;;;;;5081144;28;20204;-77
2022/05/04 10:32:38;;;;;;;9.75;2.33;;;19.80;99.90;;;;;;5086704;28;20632;-74
2022/05/04 10:35:22;;;;;;;3.53;2.20;;;19.80;99.90;;;;;;5079152;28;20200;-77
2022/05/04 10:38:07;;;;;;;3.63;2.10;;;19.70;99.90;;;;;;5081541;28;20188;-76
2022/05/04 10:40:39;;;;;;;3.78;2.20;;;19.80;99.90;;;;;;5075886;28;20201;-77
2022/05/04 10:43:12;;;;;;;5.03;2.20;;;19.80;99.90;;;;;;5079587;28;20242;-77
2022/05/04 10:45:44;;;;;;;4.22;2.55;;;19.80;99.90;;;;;;5085339;28;20203;-77
2022/05/04 10:48:25;;;;;;;5.45;2.90;;;19.70;99.90;;;;;;5082788;28;20583;-77
2022/05/04 10:51:01;;;;;;;7.78;2.97;;;19.80;99.90;;;;;;5081784;28;20224;-76
2022/05/04 10:53:46;;;;;;;5.63;2.40;;;19.80;99.90;;;;;;5079825;28;20196;-77
2022/05/04 10:56:22;;;;;;;5.47;2.38;;;19.80;99.90;;;;;;5078311;28;20221;-76
2022/05/04 10:59:00;;;;;;;4.55;2.38;;;19.80;99.90;;;;;;5080565;28;20239;-77
2022/05/04 11:01:32;;;;;;;4.60;2.25;;;19.70;99.90;;;;;;5082132;28;20282;-77
2022/05/04 11:04:24;;;;;;;2.65;1.92;;;19.70;99.90;;;;;;5084979;28;20235;-76
2022/05/04 11:07:06;;;;;;;5.20;2.60;;;19.80;99.90;;;;;;5086543;28;20653;-77
2022/05/04 11:09:40;;;;;;;6.85;2.35;;;19.70;99.90;;;;;;5088179;28;20219;-77
2022/05/04 11:12:12;;;;;;;7.32;2.67;;;19.70;99.90;;;;;;5081798;28;20193;-77
2022/05/04 11:14:43;;;;;;;5.13;2.60;;;19.70;99.90;;;;;;5079897;28;20316;-77
2022/05/04 11:17:15;;;;;;;5.50;2.70;;;19.70;99.90;;;;;;5085360;28;20200;-77
2022/05/04 11:19:47;;;;;;;4.43;2.58;;;19.70;99.90;;;;;;5082400;28;20302;-76
2022/05/04 11:22:21;;;;;;;5.15;2.40;;;19.70;99.90;;;;;;5085049;28;20573;-77
2022/05/04 11:24:52;;;;;;;3.65;2.35;;;19.60;99.90;;;;;;5084896;28;20651;-77
2022/05/04 11:27:23;;;;;;;5.00;2.30;;;19.60;99.90;;;;;;5076224;28;20211;-77
2022/05/04 11:29:54;;;;;;;3.05;2.40;;;19.60;99.90;;;;;;5082032;28;20248;-76
2022/05/04 11:32:25;;;;;;;6.00;2.40;;;19.50;99.90;;;;;;5087116;28;20199;-75
2022/05/04 11:34:58;;;;;;;4.22;2.40;;;19.40;99.90;;;;;;5081492;28;20193;-77
2022/05/04 11:37:33;;;;;;;4.25;2.40;;;19.40;99.90;;;;;;5088404;28;20253;-77
2022/05/04 11:40:15;;;;;;;6.75;2.75;;;19.40;99.90;;;;;;5080623;28;20650;-77
2022/05/04 11:42:46;;;;;;;4.00;2.55;;;19.40;99.90;;;;;;5078767;28;20246;-78
2022/05/04 11:45:17;;;;;;;4.13;2.70;;;19.30;99.90;;;;;;5085105;28;20643;-78
2022/05/04 11:47:48;;;;;;;5.32;2.70;;;19.30;99.90;;;;;;5087798;28;20196;-77
2022/05/04 11:50:18;;;;;;;4.63;2.50;;;19.30;99.90;;;;;;5081905;28;20216;-77
2022/05/04 11:52:51;;;;;;;4.82;2.30;;;19.30;99.90;;;;;;5074808;28;20204;-77
2022/05/04 11:55:22;;;;;;;3.85;2.03;;;19.30;99.90;;;;;;5084853;28;20196;-77
2022/05/04 11:57:53;;;;;;;5.45;2.45;;;19.30;99.90;;;;;;5079609;28;20635;-77
2022/05/04 12:00:24;;;;;;;4.18;2.22;;;19.30;99.90;;;;;;5077080;28;20200;-77
2022/05/04 12:02:55;;;;;;;7.07;2.30;;;19.30;99.90;;;;;;5086595;28;20655;-77
2022/05/04 12:05:26;;;;;;;5.28;2.40;;;19.20;99.90;;;;;;5078988;28;20671;-78
2022/05/04 12:07:59;;;;;;;5.03;2.40;;;19.30;99.90;;;;;;5077969;28;20734;-78
2022/05/04 12:10:29;;;;;;;4.10;2.15;;;19.30;99.90;;;;;;5078649;28;20215;-77
2022/05/04 12:13:01;;;;;;;2.60;2.03;;;19.30;99.90;;;;;;5085059;28;20571;-79
2022/05/04 12:15:32;;;;;;;2.63;1.90;;;19.30;99.90;;;;;;5079732;28;20261;-77
2022/05/04 12:18:04;;;;;;;2.10;1.60;;;19.30;99.90;;;;;;5081575;28;20578;-77
2022/05/04 12:20:35;;;;;;;3.50;2.00;;;19.30;99.90;;;;;;5074661;28;20647;-77
2022/05/04 12:23:08;;;;;;;2.85;1.70;;;19.30;99.90;;;;;;5087332;28;20219;-77
2022/05/04 12:25:38;;;;;;;3.00;1.80;;;19.30;99.90;;;;;;5082061;28;20204;-78
2022/05/04 12:28:09;;;;;;;6.15;1.70;;;19.30;99.90;;;;;;5080949;28;20192;-78
2022/05/04 12:33:34;;;;;;;2.85;1.55;;;19.40;99.90;;;;;;5081993;28;20673;-77
2022/05/04 12:36:07;;;;;;;4.63;1.58;;;19.40;99.90;;;;;;5079965;28;20192;-77
2022/05/04 12:38:45;;;;;;;4.00;1.70;;;19.30;99.90;;;;;;5082205;28;20228;-77
2022/05/04 12:41:18;;;;;;;2.72;1.50;;;19.30;99.90;;;;;;5083128;28;20242;-77
2022/05/04 12:43:50;;;;;;;4.07;1.55;;;19.30;99.90;;;;;;5082043;28;20250;-76
2022/05/04 12:46:22;;;;;;;2.70;1.33;;;19.30;99.90;;;;;;5082302;28;20279;-77
2022/05/04 12:48:53;;;;;;;2.40;1.50;;;19.30;99.90;;;;;;5089687;28;20607;-77
2022/05/04 12:51:24;;;;;;;3.03;1.63;;;19.30;99.90;;;;;;5084106;28;20224;-77
2022/05/04 12:53:57;;;;;;;2.33;1.30;;;19.20;99.90;;;;;;5082991;28;20590;-76
2022/05/04 12:59:14;;;;;;;2.83;1.60;;;19.20;99.90;;;;;;5078378;28;20236;-77
2022/05/04 13:01:45;;;;;;;3.33;1.55;;;19.20;99.90;;;;;;5078015;28;20193;-76
2022/05/04 13:04:17;;;;;;;2.50;1.60;;;19.20;99.90;;;;;;5086481;28;20196;-77
2022/05/04 13:06:48;;;;;;;1.83;1.48;;;19.20;99.90;;;;;;5086591;28;20196;-77
2022/05/04 13:09:21;;;;;;;2.58;1.45;;;19.20;99.90;;;;;;5081773;28;20193;-77
2022/05/04 13:11:51;;;;;;;3.65;1.50;;;19.20;99.90;;;;;;5077063;28;20219;-76
2022/05/04 13:14:22;;;;;;;3.03;1.60;;;19.20;99.90;;;;;;5079859;28;20197;-77
2022/05/04 13:16:53;;;;;;;4.00;1.58;;;19.20;99.90;;;;;;5090793;28;20192;-77
2022/05/04 13:19:24;;;;;;;3.10;1.33;;;19.20;99.90;;;;;;5084251;28;20283;-76
2022/05/04 13:21:54;;;;;;;4.00;1.40;;;19.20;99.90;;;;;;5090237;28;20200;-76
2022/05/04 13:24:27;;;;;;;2.67;1.35;;;19.20;99.90;;;;;;5091403;28;20200;-77
2022/05/04 13:26:57;;;;;;;4.05;1.52;;;19.30;99.90;;;;;;5087910;28;20200;-77
2022/05/04 13:29:28;;;;;;;2.20;1.33;;;19.30;99.90;;;;;;5091012;28;20196;-77
2022/05/04 13:31:59;;;;;;;7.68;1.55;;;19.40;99.90;;;;;;5085205;28;20251;-76
2022/05/04 13:34:29;;;;;;;4.05;1.35;;;19.40;99.90;;;;;;5092269;28;20206;-77
2022/05/04 13:37:00;;;;;;;1.80;1.30;;;19.40;99.90;;;;;;5084835;28;20245;-76
2022/05/04 13:39:32;;;;;;;4.68;1.30;;;19.40;99.90;;;;;;5092053;28;20277;-77
2022/05/04 13:42:03;;;;;;;3.60;1.35;;;19.40;99.90;;;;;;5094131;28;20603;-77
2022/05/04 13:44:34;;;;;;;2.03;1.10;;;19.40;99.90;;;;;;5088231;28;20263;-77
2022/05/04 13:47:04;;;;;;;4.10;1.25;;;19.40;99.90;;;;;;5089257;28;20197;-76
2022/05/04 13:49:35;;;;;;;2.47;1.25;;;19.40;99.90;;;;;;5090452;28;20249;-77
2022/05/04 13:55:04;;;;;;;2.15;1.02;;;19.40;99.90;;;;;;5051832;28;20565;-77
2022/05/04 13:57:34;;;;;;;3.58;1.50;;;19.40;99.90;;;;;;5090546;28;20682;-76
2022/05/04 14:00:05;;;;;;;2.80;1.50;;;19.40;99.90;;;;;;5083920;28;20225;-77